Time;durP1;ratioP1;P1;durP2;ratioP2;P2;SDS_P1;SDS_P2;PMS_P1;PMS_P2;Temp;Humidity;BMP_temperature;BMP_pressure;BME280_temperature;BME280_humidity;BME280_pressure;Samples;Min_cycle;Max_cycle;Signal;HPM_P1;HPM_P2
2023/03/16 00:01:21;;;;;;;;;;;;;;;9.77;53.08;100990.41;5017357;28;19914;-83
2023/03/16 00:04:13;;;;;;;;;;;;;;;9.59;53.46;100985.88;5013743;28;19914;-82
2023/03/16 00:07:05;;;;;;;;;;;;;;;9.53;53.47;100981.66;5021928;28;19917;-83
2023/03/16 00:09:57;;;;;;;;;;;;;;;9.39;53.50;100989.81;5019899;28;19913;-83
2023/03/16 00:12:49;;;;;;;;;;;;;;;9.34;53.37;100985.28;5026745;28;19913;-82
2023/03/16 00:15:41;;;;;;;;;;;;;;;9.51;51.95;100995.53;5029831;28;19913;-83
2023/03/16 00:18:37;;;;;;;;;;;;;;;9.70;51.32;100996.22;5026146;28;19913;-83
2023/03/16 00:21:29;;;;;;;;;;;;;;;9.66;51.06;100997.94;5030638;28;19913;-83
2023/03/16 00:24:22;;;;;;;;;;;;;;;9.59;50.16;101003.00;5029201;28;19913;-83
2023/03/16 00:27:14;;;;;;;;;;;;;;;9.80;49.08;101006.09;5012212;28;19913;-83
2023/03/16 00:30:06;;;;;;;;;;;;;;;9.69;48.09;100999.25;5004570;28;19913;-83
2023/03/16 00:32:58;;;;;;;;;;;;;;;9.76;47.49;101003.16;5013583;28;19913;-83
2023/03/16 00:36:00;;;;;;;;;;;;;;;9.66;47.24;101000.66;4996797;28;20373;-83
2023/03/16 00:38:53;;;;;;;;;;;;;;;9.55;47.42;101007.38;5023131;28;19913;-83
2023/03/16 00:41:46;;;;;;;;;;;;;;;9.42;47.19;101008.19;5014358;28;19918;-84
2023/03/16 00:44:38;;;;;;;;;;;;;;;9.71;46.71;101010.59;5015240;28;19914;-83
2023/03/16 00:47:31;;;;;;;;;;;;;;;9.74;47.01;100993.72;5012741;28;19913;-83
2023/03/16 00:50:23;;;;;;;;;;;;;;;9.50;47.46;101001.28;5024013;28;19913;-83
2023/03/16 00:53:15;;;;;;;;;;;;;;;9.40;48.04;101007.69;5010314;28;19917;-83
2023/03/16 00:56:07;;;;;;;;;;;;;;;9.54;47.02;101011.22;5010905;28;19913;-83
2023/03/16 00:58:59;;;;;;;;;;;;;;;9.30;48.05;101005.97;5013198;28;19914;-83
2023/03/16 01:01:51;;;;;;;;;;;;;;;9.38;47.75;101004.47;5016948;28;19918;-83
2023/03/16 01:04:43;;;;;;;;;;;;;;;9.21;47.51;101004.22;5011935;28;19913;-82
2023/03/16 01:07:33;;;;;;;;;;;;;;;9.24;48.05;100996.31;5003527;28;19913;-82
2023/03/16 01:10:23;;;;;;;;;;;;;;;9.25;48.93;100992.47;5020399;28;19917;-83
2023/03/16 01:13:15;;;;;;;;;;;;;;;9.29;49.09;100998.94;5009139;28;19917;-83
2023/03/16 01:16:07;;;;;;;;;;;;;;;9.07;49.92;100995.28;5011857;28;19913;-83
2023/03/16 01:18:59;;;;;;;;;;;;;;;9.22;48.59;100995.81;5028984;28;19913;-82
2023/03/16 01:21:51;;;;;;;;;;;;;;;9.15;48.94;100989.16;5009181;28;20288;-82
2023/03/16 01:24:43;;;;;;;;;;;;;;;9.22;48.69;100990.38;5005519;28;19914;-82
2023/03/16 01:27:35;;;;;;;;;;;;;;;9.08;49.57;100986.84;5017384;28;19913;-82
2023/03/16 01:30:27;;;;;;;;;;;;;;;9.17;49.14;100993.19;5008475;28;19914;-82
2023/03/16 01:33:19;;;;;;;;;;;;;;;9.01;49.33;100991.84;4992843;28;20377;-82
2023/03/16 01:36:12;;;;;;;;;;;;;;;8.97;48.82;100988.13;5009833;28;19913;-82
2023/03/16 01:39:11;;;;;;;;;;;;;;;8.95;48.84;100982.19;5006653;28;19913;-81
2023/03/16 01:42:07;;;;;;;;;;;;;;;9.00;48.40;100988.31;4995135;28;19917;-82
2023/03/16 01:45:00;;;;;;;;;;;;;;;9.05;48.00;100982.00;5015519;28;19921;-82
2023/03/16 01:47:57;;;;;;;;;;;;;;;8.94;48.21;100975.94;4997692;28;20288;-81
2023/03/16 01:50:49;;;;;;;;;;;;;;;8.88;47.88;100971.72;5010581;28;19917;-81
2023/03/16 01:53:42;;;;;;;;;;;;;;;8.86;47.85;100970.41;4999009;28;19913;-81
2023/03/16 01:56:39;;;;;;;;;;;;;;;8.89;47.57;100973.31;5004767;28;19913;-82
2023/03/16 01:59:33;;;;;;;;;;;;;;;8.59;46.94;100980.06;5008621;28;19913;-82
2023/03/16 02:02:26;;;;;;;;;;;;;;;8.76;45.35;100976.81;4997844;28;19922;-81
2023/03/16 02:05:32;;;;;;;;;;;;;;;8.90;43.86;100976.84;5008227;28;19916;-83
2023/03/16 02:08:25;;;;;;;;;;;;;;;8.65;44.19;100983.50;5000490;28;19914;-83
2023/03/16 02:11:18;;;;;;;;;;;;;;;8.75;44.31;100982.50;5000062;28;19913;-83
2023/03/16 02:14:21;;;;;;;;;;;;;;;8.72;43.14;100983.13;4989109;28;19914;-83
2023/03/16 02:17:14;;;;;;;;;;;;;;;8.55;43.56;100984.47;4986555;28;19913;-83
2023/03/16 02:20:15;;;;;;;;;;;;;;;8.65;43.03;100982.69;4989878;28;19914;-83
2023/03/16 02:23:11;;;;;;;;;;;;;;;8.73;42.96;100973.88;4999612;28;20293;-82
2023/03/16 02:26:27;;;;;;;;;;;;;;;8.52;42.77;100978.81;5003327;28;19913;-83
2023/03/16 02:29:35;;;;;;;;;;;;;;;8.68;41.95;100977.50;4995870;28;19914;-83
2023/03/16 02:32:27;;;;;;;;;;;;;;;8.79;40.97;100975.41;4992198;28;19921;-83
2023/03/16 02:35:19;;;;;;;;;;;;;;;8.66;41.00;100973.44;5020157;28;19913;-81
2023/03/16 02:38:12;;;;;;;;;;;;;;;8.64;40.51;100975.66;4992806;28;20373;-81
2023/03/16 02:41:20;;;;;;;;;;;;;;;8.72;40.20;100977.69;5001338;28;19913;-81
2023/03/16 02:44:15;;;;;;;;;;;;;;;8.54;40.85;100982.84;4999598;28;20317;-82
2023/03/16 02:47:08;;;;;;;;;;;;;;;8.56;40.47;100983.38;5011845;28;19914;-81
2023/03/16 02:50:00;;;;;;;;;;;;;;;8.48;39.91;100981.31;5010227;28;19914;-82
2023/03/16 02:52:52;;;;;;;;;;;;;;;8.46;39.90;100986.22;5003113;28;19913;-81
2023/03/16 02:55:44;;;;;;;;;;;;;;;8.49;39.34;100985.63;4996951;28;19914;-81
2023/03/16 02:58:36;;;;;;;;;;;;;;;8.47;39.69;100987.84;4998328;28;19913;-82
2023/03/16 03:01:31;;;;;;;;;;;;;;;8.48;39.61;100992.16;4983687;28;19914;-82
2023/03/16 03:04:23;;;;;;;;;;;;;;;8.42;39.00;100987.91;4988384;28;19917;-81
2023/03/16 03:07:15;;;;;;;;;;;;;;;8.52;38.76;100990.47;5006084;28;19918;-81
2023/03/16 03:10:18;;;;;;;;;;;;;;;8.45;38.89;100984.63;4999977;28;19913;-82
2023/03/16 03:13:10;;;;;;;;;;;;;;;8.43;38.93;100997.63;4997588;28;19913;-81
2023/03/16 03:16:02;;;;;;;;;;;;;;;8.47;38.73;100993.25;4999298;28;19914;-81
2023/03/16 03:18:55;;;;;;;;;;;;;;;8.39;39.24;100998.53;5001149;28;19917;-82
2023/03/16 03:21:47;;;;;;;;;;;;;;;8.49;37.90;100992.94;4998352;28;19914;-82
2023/03/16 03:24:39;;;;;;;;;;;;;;;8.35;38.95;100995.59;5004395;28;19913;-81
2023/03/16 03:27:31;;;;;;;;;;;;;;;8.42;37.84;101001.47;4993821;28;19914;-81
2023/03/16 03:30:28;;;;;;;;;;;;;;;8.20;38.77;101001.22;5002954;28;20380;-82
2023/03/16 03:33:20;;;;;;;;;;;;;;;8.29;38.08;101002.16;5002818;28;20397;-82
2023/03/16 03:36:13;;;;;;;;;;;;;;;8.27;37.71;101004.38;5004801;28;19914;-81
2023/03/16 03:39:08;;;;;;;;;;;;;;;8.16;38.88;101009.13;5013580;28;19917;-81
2023/03/16 03:42:00;;;;;;;;;;;;;;;8.39;37.79;101007.47;5024324;28;19913;-81
2023/03/16 03:44:52;;;;;;;;;;;;;;;8.34;37.99;101012.94;5008774;28;20304;-81
2023/03/16 03:47:42;;;;;;;;;;;;;;;8.19;39.54;101018.56;5007364;28;19913;-81
2023/03/16 03:50:36;;;;;;;;;;;;;;;8.13;38.91;101027.84;5017599;28;19913;-81
2023/03/16 03:53:48;;;;;;;;;;;;;;;8.27;38.38;101025.22;5013097;28;19913;-80
2023/03/16 03:57:04;;;;;;;;;;;;;;;8.38;38.69;101032.16;5002331;28;20369;-80
2023/03/16 03:59:56;;;;;;;;;;;;;;;8.15;39.60;101039.19;5011619;28;19913;-81
2023/03/16 04:03:05;;;;;;;;;;;;;;;8.16;38.21;101036.22;5007400;28;19921;-81
2023/03/16 04:06:00;;;;;;;;;;;;;;;8.24;38.38;101042.06;4996698;28;19917;-79
2023/03/16 04:08:52;;;;;;;;;;;;;;;8.20;37.54;101043.75;5001426;28;19913;-80
2023/03/16 04:11:45;;;;;;;;;;;;;;;8.25;36.83;101049.91;5006822;28;20068;-81
2023/03/16 04:14:37;;;;;;;;;;;;;;;8.11;37.29;101046.31;5002732;28;19917;-81
2023/03/16 04:17:31;;;;;;;;;;;;;;;8.14;37.61;101053.84;5000518;28;19913;-80
2023/03/16 04:20:23;;;;;;;;;;;;;;;7.99;37.73;101064.84;5006364;28;20384;-81
2023/03/16 04:23:15;;;;;;;;;;;;;;;8.27;37.67;101068.59;5004801;28;20568;-82
2023/03/16 04:26:07;;;;;;;;;;;;;;;8.30;41.40;101060.69;5005290;28;19917;-82
2023/03/16 04:28:58;;;;;;;;;;;;;;;8.27;40.49;101066.69;5000772;28;19914;-82
2023/03/16 04:31:50;;;;;;;;;;;;;;;8.32;37.07;101071.25;4991153;28;19913;-82
2023/03/16 04:34:42;;;;;;;;;;;;;;;8.18;37.07;101067.63;4996521;28;19914;-83
2023/03/16 04:37:34;;;;;;;;;;;;;;;8.25;37.11;101073.47;5006363;28;19917;-82
2023/03/16 04:40:27;;;;;;;;;;;;;;;7.95;37.52;101067.34;4999774;28;19921;-81
2023/03/16 04:43:23;;;;;;;;;;;;;;;8.29;37.46;101072.59;4993581;28;19921;-82
2023/03/16 04:46:16;;;;;;;;;;;;;;;8.15;37.34;101069.81;4997316;28;19914;-82
2023/03/16 04:49:08;;;;;;;;;;;;;;;8.28;36.86;101076.41;5013571;28;19914;-82
2023/03/16 04:52:00;;;;;;;;;;;;;;;8.03;36.90;101080.22;4999486;28;19917;-82
2023/03/16 04:54:52;;;;;;;;;;;;;;;7.96;37.46;101074.38;5008091;28;19921;-81
2023/03/16 04:57:44;;;;;;;;;;;;;;;8.12;36.78;101078.53;5003636;28;19913;-81
2023/03/16 05:00:36;;;;;;;;;;;;;;;8.09;36.79;101075.56;5007084;28;19936;-82
2023/03/16 05:03:34;;;;;;;;;;;;;;;8.13;36.28;101087.44;5007182;28;19917;-82
2023/03/16 05:06:25;;;;;;;;;;;;;;;8.01;36.53;101081.63;5005956;28;19917;-82
2023/03/16 05:09:15;;;;;;;;;;;;;;;7.98;36.69;101085.72;5022126;28;19914;-82
2023/03/16 05:12:07;;;;;;;;;;;;;;;8.02;36.63;101085.97;4999968;28;19913;-81
2023/03/16 05:14:57;;;;;;;;;;;;;;;8.28;36.12;101091.88;5023812;28;19913;-81
2023/03/16 05:18:07;;;;;;;;;;;;;;;8.15;36.44;101096.88;5010968;28;19929;-82
2023/03/16 05:20:58;;;;;;;;;;;;;;;8.06;36.87;101089.69;4991072;28;19914;-82
2023/03/16 05:23:54;;;;;;;;;;;;;;;8.06;37.17;101095.13;4994940;28;19917;-82
2023/03/16 05:26:44;;;;;;;;;;;;;;;7.96;37.30;101111.47;5035421;23;19921;-80
2023/03/16 05:29:37;;;;;;;;;;;;;;;8.05;37.37;101105.13;4991226;28;19918;-80
2023/03/16 05:32:29;;;;;;;;;;;;;;;8.08;37.19;101103.75;4996456;28;19921;-79
2023/03/16 05:35:21;;;;;;;;;;;;;;;8.10;36.95;101112.41;5025407;28;20368;-78
2023/03/16 05:38:13;;;;;;;;;;;;;;;8.13;36.95;101117.22;5002930;28;19917;-79
2023/03/16 05:41:05;;;;;;;;;;;;;;;8.08;36.91;101120.00;4988441;28;19917;-80
2023/03/16 05:44:09;;;;;;;;;;;;;;;8.19;37.21;101126.91;4989817;28;19917;-79
2023/03/16 05:47:21;;;;;;;;;;;;;;;8.20;37.68;101123.09;5005806;28;19913;-81
2023/03/16 05:50:18;;;;;;;;;;;;;;;8.22;37.74;101131.75;5002050;28;19914;-79
2023/03/16 05:53:07;;;;;;;;;;;;;;;8.20;38.46;101133.94;5003687;28;20521;-79
2023/03/16 05:55:59;;;;;;;;;;;;;;;8.18;39.15;101136.94;5000462;28;19913;-79
2023/03/16 05:58:54;;;;;;;;;;;;;;;8.07;38.59;101145.47;5009979;28;19913;-79
2023/03/16 06:01:46;;;;;;;;;;;;;;;8.18;38.36;101146.19;5021576;28;19913;-79
2023/03/16 06:04:38;;;;;;;;;;;;;;;8.20;38.33;101146.69;5020749;28;19917;-79
2023/03/16 06:07:30;;;;;;;;;;;;;;;8.35;38.37;101147.34;5019088;28;19912;-79
2023/03/16 06:10:22;;;;;;;;;;;;;;;8.42;38.81;101145.09;5003695;28;19913;-79
2023/03/16 06:13:14;;;;;;;;;;;;;;;8.57;37.96;101161.16;5010840;28;19913;-79
2023/03/16 06:16:02;;;;;;;;;;;;;;;8.63;37.78;101163.81;4996291;28;19913;-79
2023/03/16 06:18:54;;;;;;;;;;;;;;;8.72;37.71;101171.00;4993096;28;19914;-78
2023/03/16 06:21:46;;;;;;;;;;;;;;;8.74;38.04;101167.97;4990897;28;19913;-78
2023/03/16 06:24:38;;;;;;;;;;;;;;;8.85;38.32;101172.16;4985282;28;19918;-78
2023/03/16 06:27:28;;;;;;;;;;;;;;;8.92;38.96;101175.34;4979382;28;19913;-79
2023/03/16 06:30:38;;;;;;;;;;;;;;;9.10;38.84;101185.38;5004159;28;19913;-79
2023/03/16 06:33:26;;;;;;;;;;;;;;;9.18;39.28;101192.88;4998407;28;19913;-78
2023/03/16 06:36:17;;;;;;;;;;;;;;;9.19;40.46;101194.47;4997878;28;19913;-81
2023/03/16 06:39:10;;;;;;;;;;;;;;;9.32;40.60;101196.44;5005001;28;19914;-79
2023/03/16 06:42:03;;;;;;;;;;;;;;;9.40;40.97;101209.34;5026506;28;19916;-79
2023/03/16 06:44:53;;;;;;;;;;;;;;;9.51;41.12;101218.13;5031753;28;19917;-80
2023/03/16 06:47:45;;;;;;;;;;;;;;;9.59;41.33;101216.66;5021385;28;19913;-79
2023/03/16 06:50:39;;;;;;;;;;;;;;;9.72;41.77;101224.03;5006562;28;19948;-79
2023/03/16 06:53:31;;;;;;;;;;;;;;;9.95;44.19;101228.56;4996508;28;19913;-80
2023/03/16 06:56:23;;;;;;;;;;;;;;;10.07;40.53;101228.06;4992093;28;19914;-78
2023/03/16 06:59:13;;;;;;;;;;;;;;;10.11;41.22;101240.75;5014149;28;20311;-79
2023/03/16 07:02:15;;;;;;;;;;;;;;;10.09;41.78;101240.25;4998567;28;20308;-86
2023/03/16 07:05:06;;;;;;;;;;;;;;;10.20;42.61;101249.88;4994679;28;19918;-83
2023/03/16 07:07:57;;;;;;;;;;;;;;;10.24;42.18;101258.22;4997946;28;19914;-83
2023/03/16 07:10:51;;;;;;;;;;;;;;;10.54;43.35;101254.13;5000857;28;20530;-83
2023/03/16 07:13:43;;;;;;;;;;;;;;;10.98;43.62;101256.22;4999137;28;19913;-83
2023/03/16 07:16:35;;;;;;;;;;;;;;;11.38;44.24;101259.97;5015623;28;19898;-83
2023/03/16 07:19:26;;;;;;;;;;;;;;;11.67;41.65;101263.09;5017608;28;19913;-81
2023/03/16 07:22:19;;;;;;;;;;;;;;;11.80;41.64;101256.81;5010912;28;19914;-82
2023/03/16 07:25:11;;;;;;;;;;;;;;;11.93;39.85;101264.13;5002120;28;20324;-82
2023/03/16 07:28:07;;;;;;;;;;;;;;;12.22;39.85;101271.03;5014034;28;19913;-81
2023/03/16 07:31:00;;;;;;;;;;;;;;;12.59;42.39;101272.50;5017780;28;19913;-79
2023/03/16 07:33:53;;;;;;;;;;;;;;;13.51;40.99;101280.44;5010016;28;20404;-81
2023/03/16 07:36:51;;;;;;;;;;;;;;;13.94;43.01;101280.44;5013071;28;19914;-80
2023/03/16 07:39:43;;;;;;;;;;;;;;;13.38;41.08;101277.84;5006648;28;19913;-81
2023/03/16 07:42:42;;;;;;;;;;;;;;;13.44;43.28;101277.38;4999470;28;19914;-81
2023/03/16 07:45:36;;;;;;;;;;;;;;;14.42;40.66;101285.66;5007256;28;19914;-80
2023/03/16 07:48:26;;;;;;;;;;;;;;;15.02;41.92;101303.75;5006063;28;19913;-82
2023/03/16 07:51:24;;;;;;;;;;;;;;;15.12;40.48;101297.91;5003605;28;19913;-82
2023/03/16 07:54:13;;;;;;;;;;;;;;;14.70;40.81;101304.38;5007175;28;19913;-82
2023/03/16 07:57:06;;;;;;;;;;;;;;;14.66;40.28;101307.00;5004008;28;20296;-81
2023/03/16 07:59:58;;;;;;;;;;;;;;;14.53;37.75;101303.31;5008985;28;19913;-80
2023/03/16 08:02:50;;;;;;;;;;;;;;;15.08;39.21;101305.19;5007010;28;19913;-83
2023/03/16 08:05:42;;;;;;;;;;;;;;;14.04;38.57;101317.56;5007281;28;20377;-82
2023/03/16 08:08:36;;;;;;;;;;;;;;;14.61;37.85;101314.56;5007259;28;20380;-81
2023/03/16 08:11:29;;;;;;;;;;;;;;;14.89;39.18;101315.72;5004493;28;20377;-79
2023/03/16 08:14:22;;;;;;;;;;;;;;;14.26;36.71;101314.66;5006952;28;19918;-78
2023/03/16 08:17:33;;;;;;;;;;;;;;;14.31;39.63;101321.88;4995345;28;19913;-78
2023/03/16 08:20:24;;;;;;;;;;;;;;;14.38;37.15;101323.00;4998004;28;19917;-78
2023/03/16 08:23:14;;;;;;;;;;;;;;;14.22;36.14;101332.03;5003957;28;19917;-79
2023/03/16 08:26:07;;;;;;;;;;;;;;;14.27;35.65;101324.47;4998585;28;19914;-78
2023/03/16 08:29:01;;;;;;;;;;;;;;;14.23;36.67;101336.34;4988988;28;19914;-78
2023/03/16 08:31:54;;;;;;;;;;;;;;;14.07;35.85;101334.13;4992069;28;19918;-80
2023/03/16 08:34:50;;;;;;;;;;;;;;;13.97;36.52;101328.19;4990015;28;19914;-79
2023/03/16 08:37:43;;;;;;;;;;;;;;;14.19;35.32;101333.47;4993289;28;19913;-80
2023/03/16 08:40:35;;;;;;;;;;;;;;;14.12;35.00;101333.97;5001641;28;19913;-80
2023/03/16 08:43:25;;;;;;;;;;;;;;;14.04;35.34;101340.25;5007947;28;19921;-79
2023/03/16 08:46:17;;;;;;;;;;;;;;;13.84;35.49;101340.91;5005927;28;19913;-79
2023/03/16 08:49:12;;;;;;;;;;;;;;;13.71;34.30;101337.19;5003375;28;20308;-78
2023/03/16 08:52:02;;;;;;;;;;;;;;;13.80;32.63;101337.22;4998313;28;19932;-81
2023/03/16 08:54:55;;;;;;;;;;;;;;;13.84;32.45;101338.16;5007294;28;19913;-84
2023/03/16 08:57:47;;;;;;;;;;;;;;;13.78;30.99;101346.84;5009618;28;20308;-84
2023/03/16 09:00:40;;;;;;;;;;;;;;;13.58;31.89;101348.28;5015139;28;19913;-84
2023/03/16 09:03:31;;;;;;;;;;;;;;;13.45;31.61;101351.97;5012935;28;19918;-84
2023/03/16 09:06:24;;;;;;;;;;;;;;;13.62;31.82;101360.97;5025917;28;19913;-84
2023/03/16 09:09:16;;;;;;;;;;;;;;;13.75;32.20;101361.16;5005237;28;19913;-83
2023/03/16 09:12:08;;;;;;;;;;;;;;;13.71;31.05;101359.06;4998010;28;19915;-84
2023/03/16 09:15:00;;;;;;;;;;;;;;;13.76;32.74;101362.78;5003346;28;19913;-84
2023/03/16 09:17:52;;;;;;;;;;;;;;;13.74;31.63;101367.75;5000229;28;19914;-84
2023/03/16 09:20:44;;;;;;;;;;;;;;;13.82;30.55;101366.94;5003097;28;20377;-83
2023/03/16 09:23:36;;;;;;;;;;;;;;;13.62;30.85;101377.38;5013952;28;19917;-84
2023/03/16 09:26:28;;;;;;;;;;;;;;;13.56;31.24;101375.91;5019718;28;19913;-84
2023/03/16 09:29:21;;;;;;;;;;;;;;;13.66;30.85;101380.28;5019370;28;19913;-83
2023/03/16 09:32:12;;;;;;;;;;;;;;;13.54;31.47;101375.44;5006758;28;19914;-83
2023/03/16 09:35:04;;;;;;;;;;;;;;;13.46;30.73;101375.44;4998501;28;20328;-84
2023/03/16 09:37:56;;;;;;;;;;;;;;;13.50;31.72;101379.13;5002633;28;19914;-84
2023/03/16 09:40:49;;;;;;;;;;;;;;;13.55;31.75;101384.44;5005421;28;19913;-83
2023/03/16 09:43:48;;;;;;;;;;;;;;;13.80;33.33;101391.06;5015989;28;19917;-84
2023/03/16 09:46:44;;;;;;;;;;;;;;;13.89;31.93;101386.41;5008832;28;19913;-83
2023/03/16 09:49:48;;;;;;;;;;;;;;;14.00;31.98;101394.00;5007631;28;20300;-83
2023/03/16 09:52:56;;;;;;;;;;;;;;;13.86;32.75;101392.53;5014511;28;20368;-84
2023/03/16 09:55:50;;;;;;;;;;;;;;;13.95;31.44;101390.59;5018457;28;20344;-83
2023/03/16 09:58:42;;;;;;;;;;;;;;;13.93;32.54;101395.56;5022289;28;19913;-83
2023/03/16 10:01:37;;;;;;;;;;;;;;;13.82;32.33;101400.56;5019531;28;20118;-82
2023/03/16 10:04:48;;;;;;;;;;;;;;;13.77;32.25;101400.72;5009717;28;19918;-83
2023/03/16 10:07:51;;;;;;;;;;;;;;;13.81;33.58;101403.63;5017672;28;20292;-83
2023/03/16 10:10:57;;;;;;;;;;;;;;;13.88;33.09;101398.47;5008229;28;19913;-83
2023/03/16 10:14:06;;;;;;;;;;;;;;;13.88;32.67;101403.94;5029978;28;20293;-85
2023/03/16 10:17:13;;;;;;;;;;;;;;;13.87;33.58;101399.59;5028615;28;19914;-85
2023/03/16 10:20:07;;;;;;;;;;;;;;;14.11;33.38;101405.41;5029994;28;20376;-83
2023/03/16 10:23:00;;;;;;;;;;;;;;;14.14;33.28;101411.03;5026879;28;19913;-85
2023/03/16 10:25:53;;;;;;;;;;;;;;;14.09;33.03;101411.19;5026124;28;19917;-84
2023/03/16 10:28:45;;;;;;;;;;;;;;;14.14;31.62;101405.56;5025112;28;19929;-85
2023/03/16 10:31:37;;;;;;;;;;;;;;;14.19;31.72;101393.66;5014508;28;19918;-84
2023/03/16 10:34:29;;;;;;;;;;;;;;;14.23;33.01;101402.00;5014796;28;20369;-84
2023/03/16 10:37:19;;;;;;;;;;;;;;;14.22;32.01;101395.72;5015988;28;20309;-83
2023/03/16 10:40:08;;;;;;;;;;;;;;;14.19;32.92;101395.59;5016580;28;19913;-84
2023/03/16 10:42:57;;;;;;;;;;;;;;;14.25;33.50;101405.25;5001632;28;19913;-84
2023/03/16 10:45:50;;;;;;;;;;;;;;;14.27;33.27;101395.59;5012027;28;20400;-84
2023/03/16 10:48:42;;;;;;;;;;;;;;;14.28;32.97;101402.66;5019291;28;19913;-83
2023/03/16 10:51:40;;;;;;;;;;;;;;;14.33;31.11;101388.00;5016391;28;19913;-84
2023/03/16 10:54:34;;;;;;;;;;;;;;;14.43;30.50;101398.63;5014455;28;19913;-84
2023/03/16 10:57:32;;;;;;;;;;;;;;;14.49;31.71;101400.91;5013051;28;19913;-84
2023/03/16 11:00:39;;;;;;;;;;;;;;;14.62;29.10;101398.31;5002238;28;19913;-84
2023/03/16 11:03:30;;;;;;;;;;;;;;;14.67;28.94;101395.41;5004852;28;19918;-84
2023/03/16 11:06:26;;;;;;;;;;;;;;;14.85;27.61;101391.47;5001682;28;20301;-84
2023/03/16 11:09:18;;;;;;;;;;;;;;;14.90;28.93;101391.28;5013809;28;19914;-83
2023/03/16 11:12:16;;;;;;;;;;;;;;;14.88;28.34;101394.34;5014677;28;19914;-83
2023/03/16 11:15:11;;;;;;;;;;;;;;;14.93;28.37;101387.91;5012679;28;19913;-84
2023/03/16 11:18:04;;;;;;;;;;;;;;;14.96;28.16;101381.75;5015797;28;19914;-84
2023/03/16 11:20:56;;;;;;;;;;;;;;;14.99;27.00;101389.31;5019721;28;20292;-84
2023/03/16 11:23:49;;;;;;;;;;;;;;;15.01;27.91;101383.50;5018049;28;19918;-84
2023/03/16 11:26:41;;;;;;;;;;;;;;;15.12;27.44;101380.09;5056066;23;19921;-85
2023/03/16 11:29:57;;;;;;;;;;;;;;;15.21;26.15;101374.56;5011814;28;19917;-84
2023/03/16 11:32:50;;;;;;;;;;;;;;;15.43;24.91;101382.50;5022098;28;19913;-85
2023/03/16 11:35:42;;;;;;;;;;;;;;;15.35;23.55;101380.59;5025270;28;19913;-86
2023/03/16 11:38:58;;;;;;;;;;;;;;;15.46;21.75;101361.84;5024063;28;19913;-86
2023/03/16 11:42:01;;;;;;;;;;;;;;;15.53;22.30;101364.91;4999320;28;19913;-86
2023/03/16 11:44:54;;;;;;;;;;;;;;;15.54;24.36;101370.06;5023937;28;19917;-86
2023/03/16 11:47:57;;;;;;;;;;;;;;;15.75;26.69;101356.34;5017478;28;20280;-85
2023/03/16 11:50:49;;;;;;;;;;;;;;;15.75;25.73;101353.59;5007973;28;19913;-85
2023/03/16 11:53:38;;;;;;;;;;;;;;;15.87;23.61;101350.94;5018884;28;19913;-85
2023/03/16 11:56:32;;;;;;;;;;;;;;;15.89;25.53;101353.34;5017768;28;19914;-85
2023/03/16 11:59:39;;;;;;;;;;;;;;;15.85;25.67;101344.19;5023098;28;19913;-83
2023/03/16 12:02:46;;;;;;;;;;;;;;;15.87;25.15;101339.97;5021460;28;19914;-85
2023/03/16 12:06:08;;;;;;;;;;;;;;;15.85;25.76;101342.22;5024248;28;19917;-83
2023/03/16 12:09:08;;;;;;;;;;;;;;;15.92;23.85;101344.44;4981032;28;19913;-84
2023/03/16 12:12:24;;;;;;;;;;;;;;;16.08;22.43;101335.25;5018440;28;20388;-83
2023/03/16 12:15:30;;;;;;;;;;;;;;;16.10;23.58;101332.97;4998537;28;20380;-81
2023/03/16 12:18:20;;;;;;;;;;;;;;;16.05;24.38;101327.69;5030989;28;20296;-82
2023/03/16 12:21:36;;;;;;;;;;;;;;;16.13;24.67;101323.28;5001118;28;19914;-82
2023/03/16 12:24:30;;;;;;;;;;;;;;;18.70;22.50;101335.22;5010521;28;19929;-86
2023/03/16 12:27:23;;;;;;;;;;;;;;;24.79;15.91;101342.59;5017436;28;19913;-85
2023/03/16 12:30:29;;;;;;;;;;;;;;;26.86;14.25;101330.31;5021889;28;19913;-87
2023/03/16 12:33:21;;;;;;;;;;;;;;;26.85;13.76;101328.72;5024518;28;20357;-90
2023/03/16 12:36:32;;;;;;;;;;;;;;;27.70;13.32;101327.91;5016316;28;19921;-89
2023/03/16 12:39:52;;;;;;;2.88;1.05;;;;;;;30.89;11.72;101328.47;5025029;28;20415;-83
2023/03/16 12:43:06;;;;;;;1.55;0.77;;;;;;;31.44;10.72;101332.28;5032813;28;20049;-84
2023/03/16 12:46:18;;;;;;;3.70;1.08;;;;;;;29.62;11.87;101322.91;5031815;28;20052;-84
2023/03/16 12:49:14;;;;;;;1.40;0.95;;;;;;;29.96;11.68;101325.44;5021914;28;20053;-84
2023/03/16 12:52:11;;;;;;;3.30;0.93;;;;;;;26.83;14.00;101314.38;5021967;28;20048;-83
2023/03/16 12:55:41;;;;;;;2.17;1.00;;;;;;;30.22;11.87;101323.69;5034877;28;20049;-83
2023/03/16 12:58:36;;;;;;;1.42;0.85;;;;;;;26.83;14.02;101317.16;5011063;28;20045;-82
2023/03/16 13:01:36;;;;;;;1.38;0.73;;;;;;;31.71;10.97;101313.03;5015122;28;20041;-83
2023/03/16 13:04:39;;;;;;;1.90;1.10;;;;;;;28.38;12.25;101319.44;5026157;28;20044;-82
2023/03/16 13:07:34;;;;;;;2.47;1.10;;;;;;;28.82;11.80;101310.75;5021153;28;20057;-82
2023/03/16 13:10:26;;;;;;;2.70;1.00;;;;;;;30.19;12.03;101311.28;5019662;28;20405;-87
2023/03/16 13:13:24;;;;;;;1.60;1.02;;;;;;;30.49;11.86;101304.59;5019016;28;20049;-84
2023/03/16 13:16:27;;;;;;;2.78;0.90;;;;;;;28.23;14.02;101309.69;5006988;28;20037;-85
2023/03/16 13:19:29;;;;;;;2.33;1.17;;;;;;;29.31;12.33;101305.50;5028338;28;20044;-87
2023/03/16 13:22:30;;;;;;;1.15;0.98;;;;;;;29.71;12.62;101300.72;5017593;28;20074;-87
2023/03/16 13:25:35;;;;;;;3.45;0.80;;;;;;;28.38;13.56;101302.66;5030928;28;20068;-87
2023/03/16 13:28:31;;;;;;;1.48;0.80;;;;;;;31.45;10.95;101300.09;5006110;28;20079;-87
2023/03/16 13:31:29;;;;;;;7.95;1.38;;;;;;;31.63;10.27;101299.63;5008165;28;20041;-88
2023/03/16 13:34:31;;;;;;;3.58;0.95;;;;;;;33.18;9.74;101304.31;5019141;28;20429;-87
2023/03/16 13:37:29;;;;;;;2.67;0.80;;;;;;;32.20;9.90;101298.72;5008507;28;20045;-87
2023/03/16 13:40:31;;;;;;;2.92;0.85;;;;;;;30.92;11.19;101293.09;5009858;28;20520;-86
2023/03/16 13:43:26;;;;;;;1.20;0.90;;;;;;;26.51;13.48;101278.38;5022645;28;20060;-86
2023/03/16 13:46:21;;;;;;;1.88;1.00;;;;;;;29.17;12.63;101284.13;5019888;28;20118;-85
2023/03/16 13:49:15;;;;;;;5.10;1.08;;;;;;;30.69;11.11;101285.66;5021952;28;20044;-85
2023/03/16 13:52:14;;;;;;;1.63;1.03;;;;;;;32.26;10.46;101289.25;5021651;28;20428;-85
2023/03/16 13:55:12;;;;;;;2.03;1.15;;;;;;;31.40;10.60;101284.56;5022091;28;20393;-86
2023/03/16 13:58:18;;;;;;;2.53;1.00;;;;;;;31.59;10.43;101273.63;5021316;28;20397;-85
2023/03/16 14:01:27;;;;;;;2.65;1.15;;;;;;;29.39;12.00;101272.53;5017500;28;20046;-86
2023/03/16 14:04:22;;;;;;;3.65;0.85;;;;;;;30.68;11.01;101272.06;5001869;28;20045;-87
2023/03/16 14:07:16;;;;;;;3.63;0.80;;;;;;;31.93;9.92;101268.16;4998514;28;20065;-87
2023/03/16 14:10:11;;;;;;;3.08;1.42;;;;;;;25.63;14.57;101256.59;5001704;28;20057;-86
2023/03/16 14:13:34;;;;;;;1.80;1.00;;;;;;;29.84;12.38;101269.97;5002288;28;20520;-86
2023/03/16 14:16:30;;;;;;;3.03;1.10;;;;;;;28.16;13.29;101262.22;4996422;28;20053;-85
2023/03/16 14:19:34;;;;;;;3.10;1.25;;;;;;;31.41;10.76;101248.81;5001720;28;20053;-85
2023/03/16 14:22:33;;;;;;;2.03;1.15;;;;;;;31.43;11.06;101261.19;5000951;28;20057;-85
2023/03/16 14:25:29;;;;;;;1.98;1.00;;;;;;;27.71;13.25;101256.81;5017210;28;20064;-85
2023/03/16 14:28:28;;;;;;;2.72;1.20;;;;;;;29.56;12.20;101260.19;5021085;28;20041;-85
2023/03/16 14:31:31;;;;;;;3.83;1.00;;;;;;;30.04;12.05;101262.34;5021080;28;20048;-86
2023/03/16 14:34:34;;;;;;;1.15;1.02;;;;;;;30.34;11.28;101270.44;5020754;28;20049;-86
2023/03/16 14:37:34;;;;;;;1.65;1.30;;;;;;;29.45;12.01;101254.00;5014899;28;20069;-86
2023/03/16 14:40:32;;;;;;;3.47;1.45;;;;;;;27.93;13.21;101258.13;5020323;28;20041;-86
2023/03/16 14:43:32;;;;;;;3.95;1.48;;;;;;;29.70;12.12;101257.06;5015486;28;20508;-86
2023/03/16 14:46:31;;;;;;;1.88;1.20;;;;;;;28.77;12.52;101248.84;5002532;28;20548;-86
2023/03/16 14:49:30;;;;;;;2.33;1.20;;;;;;;26.62;14.98;101248.38;5000898;28;20050;-85
2023/03/16 14:52:26;;;;;;;4.47;1.70;;;;;;;26.04;16.17;101249.19;5002022;28;20053;-86
2023/03/16 14:55:21;;;;;;;2.65;1.42;;;;;;;24.68;17.04;101244.44;5001110;28;20045;-85